createdAt,value
2018-03-15T00:01:33.732Z,23.03
2018-03-15T00:04:07.547Z,22.20
2018-03-15T00:06:42.717Z,23.73
2018-03-15T00:09:17.301Z,24.70
2018-03-15T00:11:51.325Z,23.80
2018-03-15T00:14:25.786Z,22.57
2018-03-15T00:16:59.785Z,21.93
2018-03-15T00:19:34.205Z,24.40
2018-03-15T00:22:08.319Z,22.53
2018-03-15T00:24:42.146Z,25.83
2018-03-15T00:27:15.984Z,29.70
2018-03-15T00:29:49.964Z,25.20
2018-03-15T00:32:23.693Z,28.53
2018-03-15T00:34:57.598Z,28.90
2018-03-15T00:37:31.939Z,27.70
2018-03-15T00:40:05.981Z,25.77
2018-03-15T00:42:39.918Z,29.13
2018-03-15T00:45:13.805Z,23.07
2018-03-15T00:47:47.925Z,25.97
2018-03-15T00:50:21.947Z,27.57
2018-03-15T00:52:56.298Z,24.03
2018-03-15T00:55:30.423Z,24.80
2018-03-15T00:58:04.859Z,28.97
2018-03-15T01:00:38.706Z,27.70
2018-03-15T01:03:13.265Z,25.13
2018-03-15T01:05:47.176Z,33.13
2018-03-15T01:08:21.935Z,28.77
2018-03-15T01:10:55.964Z,28.73
2018-03-15T01:13:29.589Z,25.20
2018-03-15T01:16:03.354Z,26.67
2018-03-15T01:18:37.089Z,25.60
2018-03-15T01:21:10.713Z,28.90
2018-03-15T01:23:44.534Z,27.03
2018-03-15T01:26:19.198Z,24.10
2018-03-15T01:28:53.156Z,30.33
2018-03-15T01:31:26.942Z,28.63
2018-03-15T01:34:01.509Z,28.60
2018-03-15T01:36:35.651Z,29.67
2018-03-15T01:39:09.328Z,20.87
2018-03-15T01:41:43.332Z,26.17
2018-03-15T01:44:17.094Z,25.03
2018-03-15T01:46:51.543Z,30.17
2018-03-15T01:49:25.811Z,29.90
2018-03-15T01:51:59.593Z,34.20
2018-03-15T01:54:34.446Z,26.40
2018-03-15T01:57:09.324Z,30.93
2018-03-15T01:59:43.684Z,28.73
2018-03-15T02:02:17.599Z,32.50
2018-03-15T02:04:51.718Z,29.17
2018-03-15T02:07:25.546Z,31.30
2018-03-15T02:09:59.358Z,33.30
2018-03-15T02:12:33.134Z,32.50
2018-03-15T02:15:07.740Z,28.97
2018-03-15T02:17:41.774Z,38.97
2018-03-15T02:20:15.544Z,34.23
2018-03-15T02:22:49.485Z,33.40
2018-03-15T02:25:23.227Z,39.57
2018-03-15T02:27:56.890Z,25.67
2018-03-15T02:30:30.571Z,40.87
2018-03-15T02:33:04.186Z,32.77
2018-03-15T02:35:38.046Z,32.10
2018-03-15T02:38:12.500Z,30.23
2018-03-15T02:40:46.746Z,37.33
2018-03-15T02:43:20.343Z,38.10
2018-03-15T02:45:54.125Z,28.87
2018-03-15T02:48:28.028Z,34.53
2018-03-15T02:51:02.161Z,29.13
2018-03-15T02:53:36.744Z,24.90
2018-03-15T02:56:10.806Z,35.50
2018-03-15T02:58:45.024Z,26.07
2018-03-15T03:01:18.605Z,31.80
2018-03-15T03:03:52.237Z,33.13
2018-03-15T03:06:26.167Z,33.33
2018-03-15T03:09:00.290Z,24.77
2018-03-15T03:11:35.070Z,30.70
2018-03-15T03:14:09.283Z,29.50
2018-03-15T03:16:43.287Z,29.23
2018-03-15T03:19:17.262Z,36.73
2018-03-15T03:21:51.006Z,37.20
2018-03-15T03:24:25.130Z,37.33
2018-03-15T03:26:58.834Z,41.70
2018-03-15T03:29:33.345Z,38.67
2018-03-15T03:32:07.275Z,36.73
2018-03-15T03:34:40.982Z,39.67
2018-03-15T03:37:14.816Z,43.70
2018-03-15T03:39:48.673Z,35.77
2018-03-15T03:42:22.492Z,43.63
2018-03-15T03:44:57.709Z,46.57
2018-03-15T03:47:31.526Z,45.27
2018-03-15T03:50:05.519Z,40.43
2018-03-15T03:52:39.973Z,40.10
2018-03-15T03:55:13.841Z,41.03
2018-03-15T03:57:47.547Z,45.43
2018-03-15T04:00:21.312Z,45.50
2018-03-15T04:02:54.930Z,50.43
2018-03-15T04:05:29.693Z,34.40
2018-03-15T04:08:04.097Z,41.60
2018-03-15T04:10:37.928Z,28.87
2018-03-15T04:13:12.560Z,38.80
2018-03-15T04:15:46.931Z,47.20
2018-03-15T04:18:21.477Z,40.43
2018-03-15T04:20:56.304Z,42.93
2018-03-15T04:23:30.630Z,46.30
2018-03-15T04:26:04.641Z,43.87
2018-03-15T04:28:38.810Z,49.33
2018-03-15T04:31:12.977Z,41.73
2018-03-15T04:33:47.474Z,39.83
2018-03-15T04:36:21.520Z,45.40
2018-03-15T04:38:56.382Z,42.67
2018-03-15T04:41:30.254Z,47.93
2018-03-15T04:44:03.881Z,39.20
2018-03-15T04:46:37.709Z,35.87
2018-03-15T04:49:11.366Z,36.50
2018-03-15T04:51:45.150Z,49.47
2018-03-15T04:54:18.971Z,38.93
2018-03-15T04:56:52.762Z,39.10
2018-03-15T04:59:27.222Z,45.20
2018-03-15T05:02:01.779Z,45.07
2018-03-15T05:04:35.857Z,40.40
2018-03-15T05:07:09.505Z,44.73
2018-03-15T05:09:43.338Z,37.30
2018-03-15T05:12:17.086Z,37.73
2018-03-15T05:14:51.520Z,48.00
2018-03-15T05:17:25.570Z,36.67
2018-03-15T05:20:00.054Z,49.47
2018-03-15T05:22:34.201Z,42.87
2018-03-15T05:25:08.446Z,33.23
2018-03-15T05:27:42.446Z,41.37
2018-03-15T05:30:16.510Z,38.87
2018-03-15T05:32:51.370Z,47.37
2018-03-15T05:35:25.485Z,29.97
2018-03-15T05:37:59.184Z,32.03
2018-03-15T05:40:33.238Z,39.93
2018-03-15T05:43:06.873Z,39.33
2018-03-15T05:45:42.274Z,39.90
2018-03-15T05:48:16.136Z,38.37
2018-03-15T05:50:49.776Z,34.33
2018-03-15T05:53:23.610Z,38.70
2018-03-15T05:55:57.354Z,35.80
2018-03-15T05:58:31.374Z,32.40
2018-03-15T06:01:05.198Z,43.70
2018-03-15T06:03:38.840Z,39.53
2018-03-15T06:06:13.412Z,40.90
2018-03-15T06:08:47.929Z,37.57
2018-03-15T06:11:21.782Z,32.93
2018-03-15T06:13:56.336Z,32.77
2018-03-15T06:16:31.069Z,32.23
2018-03-15T06:19:05.130Z,42.00
2018-03-15T06:21:38.925Z,30.27
2018-03-15T06:24:12.685Z,29.53
2018-03-15T06:26:46.509Z,33.33
2018-03-15T06:29:20.113Z,33.07
2018-03-15T06:31:54.390Z,32.47
2018-03-15T06:34:28.266Z,34.80
2018-03-15T06:37:03.026Z,36.70
2018-03-15T06:39:37.391Z,38.00
2018-03-15T06:42:11.361Z,32.93
2018-03-15T06:44:45.438Z,28.07
2018-03-15T06:47:19.294Z,28.30
2018-03-15T06:49:52.917Z,33.07
2018-03-15T06:52:27.827Z,25.97
2018-03-15T06:55:01.812Z,30.30
2018-03-15T06:57:35.485Z,36.73
2018-03-15T07:00:09.886Z,25.00
2018-03-15T07:02:44.611Z,30.07
2018-03-15T07:05:18.563Z,26.77
2018-03-15T07:07:53.023Z,28.67
2018-03-15T07:10:27.163Z,29.90
2018-03-15T07:13:00.985Z,26.27
2018-03-15T07:15:34.922Z,23.30
2018-03-15T07:18:08.564Z,24.37
2018-03-15T07:20:42.482Z,29.23
2018-03-15T07:23:16.315Z,30.03
2018-03-15T07:25:50.258Z,27.70
2018-03-15T07:28:24.023Z,28.33
2018-03-15T07:30:58.113Z,25.57
2018-03-15T07:33:31.910Z,26.50
2018-03-15T07:36:06.634Z,27.87
2018-03-15T07:38:40.667Z,27.80
2018-03-15T07:41:14.610Z,24.13
2018-03-15T07:43:48.281Z,31.30
2018-03-15T07:46:22.049Z,21.90
2018-03-15T07:48:55.679Z,25.90
2018-03-15T07:51:29.723Z,25.40
2018-03-15T07:54:04.272Z,24.40
2018-03-15T07:56:38.650Z,26.30
2018-03-15T07:59:12.384Z,22.37
2018-03-15T08:01:46.430Z,18.43
2018-03-15T08:04:20.157Z,25.77
2018-03-15T08:06:54.296Z,23.90
2018-03-15T08:09:28.175Z,21.93
2018-03-15T08:12:02.813Z,29.40
2018-03-15T08:14:36.865Z,25.90
2018-03-15T08:17:10.933Z,25.40
2018-03-15T08:19:44.800Z,25.30
2018-03-15T08:22:19.569Z,24.40
2018-03-15T08:24:54.293Z,26.43
2018-03-15T08:27:29.083Z,23.00
2018-03-15T08:30:03.155Z,24.97
2018-03-15T08:32:38.071Z,21.30
2018-03-15T08:35:12.144Z,25.27
2018-03-15T08:37:46.900Z,22.60
2018-03-15T08:40:20.937Z,24.03
2018-03-15T08:42:54.716Z,25.90
2018-03-15T08:45:28.737Z,22.73
2018-03-15T08:48:02.454Z,21.60
2018-03-15T08:50:36.156Z,23.53
2018-03-15T08:53:10.332Z,25.73
2018-03-15T08:55:44.360Z,23.47
2018-03-15T08:58:18.174Z,18.00
2018-03-15T09:00:52.328Z,25.83
2018-03-15T09:03:26.274Z,23.67
2018-03-15T09:06:00.254Z,26.90
2018-03-15T09:08:34.265Z,20.20
2018-03-15T09:11:08.184Z,22.93
2018-03-15T09:13:42.244Z,23.97
2018-03-15T09:16:16.162Z,24.83
2018-03-15T09:18:49.947Z,26.47
2018-03-15T09:21:23.810Z,24.10
2018-03-15T09:23:57.705Z,24.97
2018-03-15T09:26:31.726Z,26.03
2018-03-15T09:29:06.253Z,24.70
2018-03-15T09:31:41.239Z,20.43
2018-03-15T09:34:15.243Z,19.70
2018-03-15T09:36:48.958Z,23.07
2018-03-15T09:39:23.659Z,24.10
2018-03-15T09:41:57.886Z,22.90
2018-03-15T09:44:32.289Z,23.90
2018-03-15T09:47:06.312Z,22.17
2018-03-15T09:49:41.138Z,22.23
2018-03-15T09:52:15.961Z,23.83
2018-03-15T09:54:50.126Z,21.77
2018-03-15T09:57:24.387Z,22.00
2018-03-15T09:59:58.108Z,24.83
2018-03-15T10:02:32.840Z,24.17
2018-03-15T10:05:07.250Z,27.20
2018-03-15T10:07:41.551Z,22.03
2018-03-15T10:10:15.384Z,28.37
2018-03-15T10:12:51.091Z,22.33
2018-03-15T10:15:26.273Z,22.30
2018-03-15T10:18:00.325Z,19.43
2018-03-15T10:20:34.277Z,20.97
2018-03-15T10:23:09.075Z,26.50
2018-03-15T10:25:44.250Z,24.13
2018-03-15T10:28:18.234Z,26.23
2018-03-15T10:30:52.209Z,27.57
2018-03-15T10:33:31.722Z,22.57
2018-03-15T10:36:06.732Z,25.70
2018-03-15T10:38:40.755Z,27.80
2018-03-15T10:41:15.370Z,25.57
2018-03-15T10:43:50.173Z,28.47
2018-03-15T10:46:24.537Z,32.80
2018-03-15T10:48:58.137Z,22.17
2018-03-15T10:51:32.052Z,23.53
2018-03-15T10:54:05.956Z,25.27
2018-03-15T10:56:39.736Z,25.00
2018-03-15T10:59:13.663Z,23.80
2018-03-15T11:01:49.422Z,23.23
2018-03-15T11:04:29.158Z,27.57
2018-03-15T11:07:04.473Z,27.13
2018-03-15T11:09:38.843Z,25.60
2018-03-15T11:12:12.730Z,25.10
2018-03-15T11:14:46.589Z,26.60
2018-03-15T11:17:20.337Z,27.47
2018-03-15T11:19:53.952Z,26.20
2018-03-15T11:22:28.921Z,26.57
2018-03-15T11:25:03.097Z,28.23
2018-03-15T11:27:36.895Z,27.50
2018-03-15T11:30:10.699Z,24.80
2018-03-15T11:32:45.606Z,32.67
2018-03-15T11:35:19.966Z,27.47
2018-03-15T11:37:53.881Z,22.10
2018-03-15T11:40:27.754Z,23.40
2018-03-15T11:43:01.660Z,22.70
2018-03-15T11:45:36.130Z,21.70
2018-03-15T11:48:10.220Z,22.47
2018-03-15T11:50:44.110Z,24.80
2018-03-15T11:53:18.417Z,27.43
2018-03-15T11:55:52.838Z,25.17
2018-03-15T11:58:26.876Z,23.37
2018-03-15T12:01:01.491Z,20.73
2018-03-15T12:03:36.315Z,25.80
2018-03-15T12:06:10.418Z,26.83
2018-03-15T12:08:44.284Z,25.70
2018-03-15T12:11:18.351Z,23.30
2018-03-15T12:13:52.110Z,28.83
2018-03-15T12:16:25.957Z,27.97
2018-03-15T12:18:59.963Z,27.13
2018-03-15T12:21:33.777Z,23.27
2018-03-15T12:24:07.643Z,25.90
2018-03-15T12:26:41.406Z,27.03
2018-03-15T12:29:15.148Z,25.47
2018-03-15T12:31:48.880Z,29.80
2018-03-15T12:34:22.958Z,23.80
2018-03-15T12:36:56.646Z,28.80
2018-03-15T12:39:30.763Z,27.10
2018-03-15T12:42:04.644Z,25.03
2018-03-15T12:44:39.338Z,31.13
2018-03-15T12:47:13.456Z,22.10
2018-03-15T12:49:47.376Z,29.10
2018-03-15T12:52:21.194Z,27.53
2018-03-15T12:54:55.729Z,23.80
2018-03-15T12:57:29.741Z,31.50
2018-03-15T13:00:04.439Z,25.53
2018-03-15T13:02:38.578Z,28.83
2018-03-15T13:05:12.785Z,23.43
2018-03-15T13:07:46.608Z,27.67
2018-03-15T13:10:21.409Z,35.00
2018-03-15T13:12:55.507Z,38.57
2018-03-15T13:15:29.457Z,23.70
2018-03-15T13:18:03.433Z,26.50
2018-03-15T13:20:38.053Z,33.00
2018-03-15T13:23:12.141Z,33.37
2018-03-15T13:25:46.910Z,30.70
2018-03-15T13:28:22.075Z,24.10
2018-03-15T13:30:56.774Z,29.10
2018-03-15T13:33:31.570Z,36.50
2018-03-15T13:36:06.407Z,33.97
2018-03-15T13:38:40.528Z,30.63
2018-03-15T13:41:14.102Z,24.83
2018-03-15T13:43:47.926Z,40.30
2018-03-15T13:46:21.719Z,34.37
2018-03-15T13:48:55.562Z,27.97
2018-03-15T13:51:29.564Z,32.43
2018-03-15T13:54:03.604Z,31.93
2018-03-15T13:56:38.456Z,34.73
2018-03-15T13:59:13.649Z,38.03
2018-03-15T14:01:48.866Z,31.63
2018-03-15T14:04:23.748Z,33.50
2018-03-15T14:06:57.976Z,34.93
2018-03-15T14:09:32.764Z,30.80
2018-03-15T14:12:07.673Z,28.10
2018-03-15T14:14:41.700Z,28.87
2018-03-15T14:17:16.526Z,30.03
2018-03-15T14:19:51.467Z,28.83
2018-03-15T14:22:25.419Z,31.20
2018-03-15T14:25:00.081Z,31.50
2018-03-15T14:27:34.339Z,25.27
2018-03-15T14:30:08.920Z,32.50
2018-03-15T14:32:43.160Z,34.27
2018-03-15T14:35:16.804Z,33.33
2018-03-15T14:37:50.514Z,36.07
2018-03-15T14:40:24.235Z,25.60
2018-03-15T14:42:58.001Z,37.40
2018-03-15T14:45:31.770Z,34.40
2018-03-15T14:48:05.594Z,37.27
2018-03-15T14:50:39.436Z,30.30
2018-03-15T14:53:13.264Z,31.70
2018-03-15T14:55:46.950Z,31.63
2018-03-15T14:58:20.710Z,29.33
2018-03-15T15:00:54.685Z,33.20
2018-03-15T15:03:28.726Z,36.77
2018-03-15T15:06:02.737Z,33.70
2018-03-15T15:08:36.380Z,33.77
2018-03-15T15:11:11.018Z,36.47
2018-03-15T15:13:46.177Z,30.47
2018-03-15T15:16:20.212Z,57.77
2018-03-15T15:18:54.328Z,29.93
2018-03-15T15:21:27.998Z,39.23
2018-03-15T15:24:01.593Z,32.37
2018-03-15T15:26:35.662Z,27.47
2018-03-15T15:29:09.650Z,19.87
2018-03-15T15:31:43.542Z,28.50
2018-03-15T15:34:17.349Z,33.43
2018-03-15T15:36:51.291Z,30.77
2018-03-15T15:39:25.794Z,32.03
2018-03-15T15:41:59.907Z,25.00
2018-03-15T15:44:33.711Z,29.23
2018-03-15T15:47:07.730Z,27.30
2018-03-15T15:49:41.382Z,26.57
2018-03-15T15:52:15.131Z,26.27
2018-03-15T15:54:48.955Z,27.00
2018-03-15T15:57:23.502Z,25.63
2018-03-15T15:59:57.192Z,32.43
2018-03-15T16:02:31.022Z,31.10
2018-03-15T16:05:05.790Z,29.53
2018-03-15T16:07:39.799Z,33.70
2018-03-15T16:10:14.520Z,31.83
2018-03-15T16:12:48.666Z,31.00
2018-03-15T16:15:22.852Z,30.70
2018-03-15T16:17:57.242Z,32.90
2018-03-15T16:20:31.497Z,31.87
2018-03-15T16:23:05.521Z,31.03
2018-03-15T16:25:39.332Z,31.03
2018-03-15T16:28:14.081Z,28.80
2018-03-15T16:30:48.467Z,35.43
2018-03-15T16:33:22.273Z,31.37
2018-03-15T16:35:56.256Z,41.60
2018-03-15T16:38:30.023Z,32.70
2018-03-15T16:41:03.801Z,38.03
2018-03-15T16:43:37.865Z,34.93
2018-03-15T16:46:11.664Z,35.93
2018-03-15T16:48:45.601Z,33.60
2018-03-15T16:51:19.477Z,29.97
2018-03-15T16:53:53.385Z,35.63
2018-03-15T16:56:28.038Z,36.97
2018-03-15T16:59:02.309Z,45.87
2018-03-15T17:01:36.418Z,34.73
2018-03-15T17:04:10.972Z,34.50
2018-03-15T17:06:45.202Z,36.13
2018-03-15T17:09:18.868Z,31.60
2018-03-15T17:11:52.870Z,35.80
2018-03-15T17:14:26.618Z,36.53
2018-03-15T17:17:00.263Z,40.20
2018-03-15T17:19:34.661Z,36.90
2018-03-15T17:22:08.893Z,40.33
2018-03-15T17:24:42.935Z,39.23
2018-03-15T17:27:16.808Z,30.77
2018-03-15T17:29:51.641Z,38.50
2018-03-15T17:32:26.862Z,36.37
2018-03-15T17:35:01.063Z,37.47
2018-03-15T17:37:35.885Z,34.40
2018-03-15T17:40:10.073Z,42.20
2018-03-15T17:42:43.948Z,36.23
2018-03-15T17:45:18.046Z,35.80
2018-03-15T17:47:52.636Z,33.17
2018-03-15T17:50:26.769Z,37.57
2018-03-15T17:53:01.688Z,48.40
2018-03-15T17:55:35.505Z,36.87
2018-03-15T17:58:09.149Z,29.90
2018-03-15T18:00:43.024Z,34.00
2018-03-15T18:03:17.036Z,35.10
2018-03-15T18:05:50.741Z,35.27
2018-03-15T18:08:25.145Z,30.13
2018-03-15T18:10:59.874Z,31.80
2018-03-15T18:13:33.726Z,35.10
2018-03-15T18:16:08.334Z,35.17
2018-03-15T18:18:42.434Z,39.43
2018-03-15T18:21:16.267Z,32.60
2018-03-15T18:23:50.284Z,30.23
2018-03-15T18:26:25.686Z,37.30
2018-03-15T18:28:59.910Z,32.20
2018-03-15T18:31:33.661Z,38.50
2018-03-15T18:34:07.554Z,35.93
2018-03-15T18:36:41.485Z,28.23
2018-03-15T18:39:15.186Z,31.60
2018-03-15T18:41:49.061Z,29.13
2018-03-15T18:44:23.491Z,31.90
2018-03-15T18:46:57.828Z,31.80
2018-03-15T18:49:31.885Z,32.47
2018-03-15T18:52:06.262Z,25.40
2018-03-15T18:54:40.239Z,28.50
2018-03-15T18:57:14.039Z,29.23
2018-03-15T18:59:47.776Z,37.00
2018-03-15T19:02:21.446Z,25.57
2018-03-15T19:04:55.230Z,35.50
2018-03-15T19:07:29.035Z,38.50
2018-03-15T19:10:02.768Z,29.47
2018-03-15T19:12:36.504Z,26.57
2018-03-15T19:15:10.383Z,28.67
2018-03-15T19:17:44.013Z,31.93
2018-03-15T19:20:18.557Z,36.97
2018-03-15T19:22:52.439Z,26.37
2018-03-15T19:25:26.305Z,30.13
2018-03-15T19:27:59.962Z,32.13
2018-03-15T19:30:34.532Z,33.63
2018-03-15T19:33:08.563Z,33.97
2018-03-15T19:35:42.447Z,33.90
2018-03-15T19:38:16.145Z,36.80
2018-03-15T19:40:49.989Z,38.53
2018-03-15T19:43:25.085Z,29.50
2018-03-15T19:45:59.862Z,30.33
2018-03-15T19:48:35.047Z,39.33
2018-03-15T19:51:09.105Z,37.03
2018-03-15T19:53:43.320Z,38.60
2018-03-15T19:56:18.511Z,35.50
2018-03-15T19:58:52.525Z,39.90
2018-03-15T20:01:27.155Z,36.40
2018-03-15T20:04:02.344Z,29.27
2018-03-15T20:06:36.377Z,46.10
2018-03-15T20:09:10.334Z,31.90
2018-03-15T20:11:45.145Z,35.37
2018-03-15T20:14:19.437Z,35.40
2018-03-15T20:16:54.009Z,33.87
2018-03-15T20:19:28.189Z,36.27
2018-03-15T20:22:01.886Z,36.73
2018-03-15T20:24:35.692Z,42.00
2018-03-15T20:27:09.470Z,42.87
2018-03-15T20:29:43.239Z,34.43
2018-03-15T20:32:23.386Z,43.53
2018-03-15T20:34:58.387Z,39.37
2018-03-15T20:37:32.418Z,32.07
2018-03-15T20:40:12.582Z,31.30
2018-03-15T20:42:46.787Z,37.43
2018-03-15T20:45:26.889Z,36.50
2018-03-15T20:48:07.747Z,50.03
2018-03-15T20:50:42.150Z,39.97
2018-03-15T20:53:15.996Z,40.97
2018-03-15T20:55:49.935Z,42.23
2018-03-15T20:58:23.744Z,37.20
2018-03-15T21:00:58.573Z,43.43
2018-03-15T21:03:33.298Z,45.23
2018-03-15T21:06:08.128Z,42.00
2018-03-15T21:08:42.412Z,44.73
2018-03-15T21:11:16.471Z,39.27
2018-03-15T21:13:50.278Z,50.67
2018-03-15T21:16:24.258Z,53.53
2018-03-15T21:18:58.230Z,52.67
2018-03-15T21:21:32.128Z,52.10
2018-03-15T21:24:05.995Z,47.10
2018-03-15T21:26:40.475Z,45.87
2018-03-15T21:29:14.573Z,57.00
2018-03-15T21:31:48.616Z,50.87
2018-03-15T21:34:23.342Z,54.60
2018-03-15T21:36:58.414Z,58.27
2018-03-15T21:39:32.346Z,45.60
2018-03-15T21:42:06.721Z,54.33
2018-03-15T21:44:40.851Z,56.13
2018-03-15T21:47:14.537Z,61.40
2018-03-15T21:49:48.270Z,63.97
2018-03-15T21:52:21.963Z,48.63
2018-03-15T21:54:55.827Z,54.30
2018-03-15T21:57:29.849Z,51.80
2018-03-15T22:00:05.014Z,53.43
2018-03-15T22:02:38.943Z,52.83
2018-03-15T22:05:12.582Z,58.93
2018-03-15T22:07:47.057Z,58.40
2018-03-15T22:10:21.580Z,65.30
2018-03-15T22:12:56.649Z,62.03
2018-03-15T22:15:31.193Z,60.67
2018-03-15T22:18:05.437Z,61.37
2018-03-15T22:20:39.988Z,53.40
2018-03-15T22:23:14.532Z,64.80
2018-03-15T22:25:48.289Z,60.70
2018-03-15T22:28:22.216Z,48.30
2018-03-15T22:30:56.669Z,46.13
2018-03-15T22:33:30.591Z,61.10
2018-03-15T22:36:05.362Z,60.27
2018-03-15T22:38:39.284Z,68.83
2018-03-15T22:41:13.029Z,60.63
2018-03-15T22:43:46.785Z,62.13
2018-03-15T22:46:20.585Z,52.87
2018-03-15T22:48:54.541Z,69.23
2018-03-15T22:51:28.405Z,62.57
2018-03-15T22:54:02.221Z,66.00
2018-03-15T22:56:36.129Z,67.93
2018-03-15T22:59:09.839Z,52.37
2018-03-15T23:01:43.641Z,62.27
2018-03-15T23:04:18.254Z,64.00
2018-03-15T23:06:52.958Z,62.90
2018-03-15T23:09:27.792Z,64.30
2018-03-15T23:12:01.396Z,71.67
2018-03-15T23:14:35.665Z,72.43
2018-03-15T23:17:10.344Z,60.73
2018-03-15T23:19:45.173Z,69.47
2018-03-15T23:22:19.529Z,68.47
2018-03-15T23:24:53.634Z,76.70
2018-03-15T23:27:27.410Z,56.83
2018-03-15T23:30:01.134Z,71.97
2018-03-15T23:32:34.938Z,64.87
2018-03-15T23:35:08.750Z,64.53
2018-03-15T23:37:42.539Z,59.50
2018-03-15T23:40:16.219Z,56.37
2018-03-15T23:42:50.023Z,66.90
2018-03-15T23:45:24.663Z,63.97
2018-03-15T23:47:58.681Z,60.33
2018-03-15T23:50:32.657Z,69.07
2018-03-15T23:53:07.291Z,70.50
2018-03-15T23:55:40.958Z,53.47
2018-03-15T23:58:15.522Z,64.20
